Time;durP1;ratioP1;P1;durP2;ratioP2;P2;SDS_P1;SDS_P2;PMS_P1;PMS_P2;Temp;Humidity;BMP_temperature;BMP_pressure;BME280_temperature;BME280_humidity;BME280_pressure;Samples;Min_cycle;Max_cycle;Signal;HPM_P1;HPM_P2
2023/01/11 00:09:07;;;;;;;9.40;3.30;;;;;;;-10.76;100.00;101740.50;31476624;28;20501;-79
2023/01/11 00:24:09;;;;;;;5.63;3.27;;;;;;;-10.93;100.00;101731.03;31500205;28;20076;-80
2023/01/11 00:39:11;;;;;;;2.50;2.30;;;;;;;-10.74;100.00;101722.69;31529183;28;20052;-92
2023/01/11 00:54:14;;;;;;;4.00;3.67;;;;;;;-10.78;100.00;101749.63;31522555;28;20128;-94
2023/01/11 01:10:27;;;;;;;3.27;3.07;;;;;;;-10.89;100.00;101730.31;31551243;28;20053;-92
2023/01/11 04:38:12;;;;;;;3.57;3.37;;;;;;;-10.68;100.00;101721.75;31582848;27;20402;-78
2023/01/11 04:53:14;;;;;;;5.00;4.70;;;;;;;-10.51;100.00;101739.34;31539641;28;20097;-91
2023/01/11 05:08:16;;;;;;;3.70;3.43;;;;;;;-10.79;100.00;101761.16;31543716;28;20057;-93
2023/01/11 05:23:18;;;;;;;2.53;2.43;;;;;;;-10.77;100.00;101748.59;31457311;28;20049;-92
2023/01/11 05:38:23;;;;;;;3.30;3.00;;;;;;;-10.47;100.00;101751.75;31439232;28;20049;-79
2023/01/11 05:53:25;;;;;;;2.77;2.60;;;;;;;-10.39;100.00;101737.44;31356490;28;20045;-80
2023/01/11 06:08:27;;;;;;;4.57;4.10;;;;;;;-9.06;100.00;101752.03;31343567;28;20057;-79
2023/01/11 06:23:31;;;;;;;4.80;3.67;;;;;;;-9.03;100.00;101748.13;31354012;28;20144;-80
2023/01/11 06:38:36;;;;;;;5.53;3.80;;;;;;;-7.70;100.00;101742.78;31467062;28;20044;-93
2023/01/11 06:53:40;;;;;;;3.08;2.88;;;;;;;-6.55;97.26;101746.00;31493448;28;20305;-94
2023/01/11 07:08:45;;;;;;;4.30;3.13;;;;;;;-6.36;94.72;101743.63;31526838;28;20040;-94
2023/01/11 07:23:47;;;;;;;5.27;3.97;;;;;;;-4.45;78.54;101735.13;31528574;28;20060;-92
2023/01/11 07:38:49;;;;;;;3.13;2.57;;;;;;;-4.21;75.48;101709.44;31410392;28;20095;-94
2023/01/11 07:53:52;;;;;;;3.40;3.10;;;;;;;-4.11;73.59;101735.09;31412266;28;20063;-95
2023/01/11 08:08:54;;;;;;;5.27;2.80;;;;;;;-3.56;72.82;101751.50;31452961;28;20073;-94
2023/01/11 08:23:58;;;;;;;4.17;3.67;;;;;;;-2.01;66.59;101732.72;31425168;28;20112;-92
2023/01/11 08:39:00;;;;;;;3.83;2.33;;;;;;;-1.48;62.83;101732.25;31279070;23;20510;-78
2023/01/11 08:54:03;;;;;;;5.07;3.03;;;;;;;-1.16;59.34;101721.44;31103836;28;20052;-77
2023/01/11 14:35:16;;;;;;;3.20;2.10;;;;;;;-3.61;100.00;101642.72;31431349;27;20506;-74
2023/01/11 14:50:27;;;;;;;4.73;2.90;;;;;;;-3.98;100.00;101651.38;31320704;28;20045;-80
2023/01/11 15:05:30;;;;;;;2.90;2.20;;;;;;;-4.39;100.00;101658.97;31375684;28;20450;-86
2023/01/11 15:20:32;;;;;;;4.10;2.90;;;;;;;-4.83;100.00;101655.41;31365580;28;20056;-91
2023/01/11 15:35:54;;;;;;;8.97;3.40;;;;;;;-5.03;100.00;101654.75;31370856;28;20048;-84
2023/01/11 15:51:27;;;;;;;2.93;2.73;;;;;;;-5.17;100.00;101660.66;31398120;28;20052;-85
2023/01/11 16:07:03;;;;;;;5.10;3.67;;;;;;;-5.06;100.00;101660.59;31408063;28;20155;-83
2023/01/11 16:22:10;;;;;;;;;;;;;;;-4.94;100.00;101668.97;31354386;28;20053;-80
2023/01/11 16:37:43;;;;;;;2.95;2.60;;;;;;;-4.71;100.00;101678.88;31375590;28;20324;-81
2023/01/11 16:52:46;;;;;;;5.50;2.87;;;;;;;-4.68;100.00;101667.72;31350263;28;20398;-81
2023/01/11 17:07:48;;;;;;;3.33;3.03;;;;;;;-4.37;100.00;101656.84;31359214;28;20094;-79
2023/01/11 17:22:52;;;;;;;4.53;3.23;;;;;;;-4.29;100.00;101656.25;31345565;28;20575;-80
2023/01/11 17:37:57;;;;;;;8.63;5.00;;;;;;;-4.13;100.00;101645.19;31366179;28;20076;-81
2023/01/11 17:53:21;;;;;;;3.83;3.17;;;;;;;-4.04;100.00;101640.06;31372547;28;20114;-81
2023/01/11 18:08:23;;;;;;;9.33;3.13;;;;;;;-3.92;100.00;101629.81;31351320;28;20371;-78
2023/01/11 18:23:25;;;;;;;4.90;3.07;;;;;;;-3.97;100.00;101629.88;31346596;28;20459;-81
2023/01/11 18:38:33;;;;;;;8.43;3.93;;;;;;;-3.85;100.00;101606.41;31335381;28;20060;-80
2023/01/11 18:53:35;;;;;;;6.23;3.37;;;;;;;-4.07;100.00;101598.19;31341491;28;20150;-85
2023/01/11 19:08:37;;;;;;;11.03;3.67;;;;;;;-4.08;100.00;101596.59;31347873;28;20049;-81
2023/01/11 22:32:08;;;;;;;10.57;4.97;;;;;;;-4.29;100.00;101399.06;31827260;27;20392;-85
2023/01/11 22:47:11;;;;;;;6.73;5.00;;;;;;;-4.32;100.00;101416.31;31752508;28;20051;-86
2023/01/11 23:02:13;;;;;;;10.77;3.60;;;;;;;-4.42;100.00;101421.75;31721182;28;20052;-86
2023/01/11 23:17:17;;;;;;;4.40;3.13;;;;;;;-4.48;100.00;101434.28;31736443;28;20056;-85
2023/01/11 23:32:19;;;;;;;13.70;2.87;;;;;;;-4.50;100.00;101435.66;31643135;28;20090;-86
2023/01/11 23:47:23;;;;;;;10.93;3.57;;;;;;;-4.35;100.00;101442.63;31605803;28;20047;-87
